Time;durP1;ratioP1;P1;durP2;ratioP2;P2;SDS_P1;SDS_P2;PMS_P1;PMS_P2;Temp;Humidity;BMP_temperature;BMP_pressure;BME280_temperature;BME280_humidity;BME280_pressure;Samples;Min_cycle;Max_cycle;Signal;HPM_P1;HPM_P2
2022/12/07 00:00:42;;;;;;;14.27;7.53;;;5.50;99.90;;;;;;10146413;28;20132;-66
2022/12/07 00:05:32;;;;;;;16.58;7.30;;;5.40;99.90;;;;;;10144565;28;20394;-66
2022/12/07 00:10:23;;;;;;;12.23;6.35;;;5.40;99.90;;;;;;10118891;28;20395;-66
2022/12/07 00:15:14;;;;;;;12.13;5.22;;;5.40;99.90;;;;;;10125402;28;20033;-66
2022/12/07 00:20:06;;;;;;;13.60;6.43;;;5.50;99.90;;;;;;10121192;28;20395;-66
2022/12/07 00:24:57;;;;;;;14.43;6.68;;;5.40;99.90;;;;;;10110282;28;20028;-65
2022/12/07 00:29:47;;;;;;;12.32;6.82;;;5.50;99.90;;;;;;10130920;28;20044;-66
2022/12/07 00:34:38;;;;;;;9.60;5.70;;;5.40;99.90;;;;;;10134191;28;20040;-67
2022/12/07 00:39:29;;;;;;;12.15;6.35;;;5.40;99.90;;;;;;10120567;28;20064;-67
2022/12/07 00:44:19;;;;;;;12.40;6.20;;;5.50;99.90;;;;;;10121866;28;20029;-67
2022/12/07 00:49:10;;;;;;;12.85;5.65;;;5.50;99.90;;;;;;10126600;28;20126;-67
2022/12/07 00:54:00;;;;;;;12.00;5.43;;;5.60;99.90;;;;;;10133016;28;20036;-66
2022/12/07 00:59:02;;;;;;;14.00;6.80;;;5.60;99.90;;;;;;10120955;28;20115;-67
2022/12/07 01:03:53;;;;;;;15.45;6.72;;;5.60;99.90;;;;;;10137482;28;20014;-67
2022/12/07 01:08:44;;;;;;;12.15;5.53;;;5.50;99.90;;;;;;10137310;28;20052;-67
2022/12/07 01:13:35;;;;;;;10.85;5.20;;;5.60;99.90;;;;;;10141602;28;20024;-66
2022/12/07 01:18:28;;;;;;;10.10;5.63;;;5.60;99.90;;;;;;10122819;28;20036;-66
2022/12/07 01:23:18;;;;;;;10.23;6.25;;;5.50;99.90;;;;;;10141022;28;20486;-66
2022/12/07 01:28:09;;;;;;;9.48;4.72;;;5.60;99.90;;;;;;10136158;28;20703;-66
2022/12/07 01:32:59;;;;;;;8.60;4.72;;;5.60;99.90;;;;;;10140424;28;20084;-66
2022/12/07 01:37:50;;;;;;;8.13;3.88;;;5.70;99.90;;;;;;10141470;28;20036;-66
2022/12/07 01:42:41;;;;;;;12.02;5.13;;;5.70;99.90;;;;;;10140821;28;20086;-66
2022/12/07 01:47:31;;;;;;;10.05;5.18;;;5.70;99.90;;;;;;10123218;28;20049;-67
2022/12/07 01:52:30;;;;;;;9.65;4.97;;;5.60;99.90;;;;;;10101882;28;20017;-67
2022/12/07 01:57:21;;;;;;;10.15;5.32;;;5.60;99.90;;;;;;10127880;28;20535;-66
2022/12/07 02:02:24;;;;;;;7.35;4.28;;;5.70;99.90;;;;;;10137642;28;20123;-67
2022/12/07 02:07:15;;;;;;;8.93;5.22;;;5.70;99.90;;;;;;10138432;28;20048;-67
2022/12/07 02:12:06;;;;;;;8.07;3.92;;;5.70;99.90;;;;;;10139255;28;20474;-66
2022/12/07 02:17:19;;;;;;;8.70;4.63;;;5.70;99.90;;;;;;10138258;28;20098;-66
2022/12/07 02:22:26;;;;;;;8.90;4.60;;;5.70;99.90;;;;;;10137886;28;20498;-67
2022/12/07 02:27:32;;;;;;;9.20;4.13;;;5.70;99.90;;;;;;10133650;28;20120;-67
2022/12/07 02:32:46;;;;;;;8.37;4.27;;;5.60;99.90;;;;;;10137405;28;20013;-68
2022/12/07 02:38:07;;;;;;;7.40;4.15;;;5.60;99.90;;;;;;10138352;28;20498;-67
2022/12/07 02:43:29;;;;;;;6.65;4.22;;;5.40;99.90;;;;;;10130025;28;20414;-66
2022/12/07 02:48:21;;;;;;;8.73;4.43;;;5.40;99.90;;;;;;10080917;28;20048;-65
2022/12/07 02:53:34;;;;;;;6.28;4.38;;;5.50;99.90;;;;;;10137937;28;20033;-66
2022/12/07 02:58:40;;;;;;;9.13;4.95;;;5.50;99.90;;;;;;10138239;28;20053;-66
2022/12/07 03:03:31;;;;;;;8.68;3.90;;;5.60;99.90;;;;;;10128241;28;20031;-66
2022/12/07 03:08:22;;;;;;;9.35;4.53;;;5.50;99.90;;;;;;10137869;28;20036;-66
2022/12/07 03:13:39;;;;;;;9.32;4.70;;;5.60;99.90;;;;;;10136726;28;20032;-66
2022/12/07 03:18:35;;;;;;;9.10;4.38;;;5.70;99.90;;;;;;10089009;28;20538;-66
2022/12/07 03:23:28;;;;;;;7.05;3.85;;;5.70;99.90;;;;;;10136511;28;20560;-66
2022/12/07 03:28:22;;;;;;;9.05;3.88;;;5.80;99.90;;;;;;10137252;28;20352;-66
2022/12/07 03:33:22;;;;;;;8.85;4.28;;;5.80;99.90;;;;;;10140424;28;20112;-66
2022/12/07 03:38:20;;;;;;;8.07;4.07;;;5.90;99.90;;;;;;10136868;28;20444;-66
2022/12/07 03:43:11;;;;;;;8.65;3.80;;;5.90;99.90;;;;;;10136867;28;20479;-66
2022/12/07 03:48:26;;;;;;;7.85;4.15;;;5.90;99.90;;;;;;10137087;28;20036;-66
2022/12/07 03:53:41;;;;;;;7.68;3.53;;;5.90;99.90;;;;;;10110424;28;20055;-65
2022/12/07 03:58:32;;;;;;;8.65;3.58;;;5.90;99.90;;;;;;10128460;28;20068;-66
2022/12/07 04:03:23;;;;;;;6.15;3.60;;;5.80;99.90;;;;;;10134918;28;20029;-65
2022/12/07 04:08:13;;;;;;;8.02;3.45;;;5.70;99.90;;;;;;10130973;28;20032;-66
2022/12/07 04:13:04;;;;;;;7.45;4.55;;;5.70;99.90;;;;;;10134507;28;20083;-66
2022/12/07 04:17:54;;;;;;;8.18;4.18;;;5.70;99.90;;;;;;10133713;28;20413;-66
2022/12/07 04:22:45;;;;;;;8.77;3.88;;;5.80;99.90;;;;;;10135231;28;20460;-66
2022/12/07 04:27:36;;;;;;;11.55;4.97;;;5.80;99.90;;;;;;10130237;28;20567;-66
2022/12/07 04:32:26;;;;;;;8.32;3.70;;;5.70;99.90;;;;;;10135785;28;20028;-66
2022/12/07 04:37:17;;;;;;;8.45;4.03;;;5.70;99.90;;;;;;10118160;28;20020;-66
2022/12/07 04:42:08;;;;;;;7.05;3.20;;;5.80;99.90;;;;;;10135358;28;20021;-66
2022/12/07 04:46:58;;;;;;;6.35;4.03;;;5.70;99.90;;;;;;10150273;28;20126;-66
2022/12/07 04:51:49;;;;;;;9.30;4.22;;;5.70;99.90;;;;;;10142952;28;20368;-66
2022/12/07 04:56:40;;;;;;;10.18;4.32;;;5.50;99.90;;;;;;10143128;28;20458;-67
2022/12/07 05:01:32;;;;;;;9.90;4.00;;;5.50;99.90;;;;;;10142210;28;20036;-66
2022/12/07 05:06:22;;;;;;;7.22;3.97;;;5.50;99.90;;;;;;10141756;28;20165;-66
2022/12/07 05:16:22;;;;;;;8.32;4.22;;;5.40;99.90;;;;;;10136230;28;20639;-66
2022/12/07 05:21:13;;;;;;;8.45;3.85;;;5.30;99.90;;;;;;10141832;28;20162;-67
2022/12/07 05:26:03;;;;;;;9.70;4.53;;;5.40;99.90;;;;;;10142351;28;20095;-66
2022/12/07 05:30:54;;;;;;;7.95;4.38;;;5.40;99.90;;;;;;10141446;28;20041;-67
2022/12/07 05:35:45;;;;;;;6.70;3.90;;;5.40;99.90;;;;;;10141920;28;20028;-67
2022/12/07 05:40:36;;;;;;;11.27;5.03;;;5.40;99.90;;;;;;10141213;28;20024;-66
2022/12/07 05:45:27;;;;;;;9.23;3.33;;;5.20;99.90;;;;;;10123541;28;20028;-66
2022/12/07 05:50:17;;;;;;;7.72;4.40;;;5.30;99.90;;;;;;10140951;28;20514;-66
2022/12/07 05:55:08;;;;;;;6.90;3.63;;;5.30;99.90;;;;;;10139876;28;20320;-66
2022/12/07 05:59:59;;;;;;;6.40;3.17;;;5.20;99.90;;;;;;10141362;28;20371;-67
2022/12/07 06:04:49;;;;;;;8.90;4.30;;;5.30;99.90;;;;;;10137707;28;20040;-66
2022/12/07 06:09:40;;;;;;;7.22;4.38;;;5.30;99.90;;;;;;10136132;28;20047;-66
2022/12/07 06:14:31;;;;;;;6.65;3.30;;;5.30;99.90;;;;;;10137252;28;20390;-66
2022/12/07 06:19:21;;;;;;;7.63;4.00;;;5.40;99.90;;;;;;10139337;28;20167;-66
2022/12/07 06:24:13;;;;;;;8.10;4.15;;;5.30;99.90;;;;;;10133842;28;20040;-67
2022/12/07 06:29:04;;;;;;;6.07;3.28;;;5.20;99.90;;;;;;10138744;28;20068;-66
2022/12/07 06:34:03;;;;;;;10.30;4.35;;;5.30;99.90;;;;;;10137920;28;20017;-67
2022/12/07 06:38:53;;;;;;;10.00;4.65;;;5.30;99.90;;;;;;10134998;28;20024;-68
2022/12/07 06:43:44;;;;;;;8.15;3.95;;;5.40;99.90;;;;;;10124327;28;20024;-66
2022/12/07 06:48:35;;;;;;;7.57;3.78;;;5.30;99.90;;;;;;10126823;28;20037;-67
2022/12/07 06:53:25;;;;;;;7.38;3.78;;;5.40;99.90;;;;;;10112657;28;20033;-66
2022/12/07 06:58:17;;;;;;;7.47;4.03;;;5.40;99.90;;;;;;10115366;28;20124;-67
2022/12/07 07:03:07;;;;;;;6.78;3.42;;;5.50;99.90;;;;;;10131032;28;20028;-65
2022/12/07 07:07:58;;;;;;;6.00;3.42;;;5.50;99.90;;;;;;10129903;28;20040;-65
2022/12/07 07:12:49;;;;;;;8.43;3.78;;;5.50;99.90;;;;;;10137334;28;20033;-67
2022/12/07 07:17:39;;;;;;;11.02;4.63;;;5.60;99.90;;;;;;10135324;28;20262;-67
2022/12/07 07:22:30;;;;;;;8.27;4.03;;;5.50;99.90;;;;;;10118691;28;20033;-68
2022/12/07 07:27:21;;;;;;;8.05;3.95;;;5.60;99.90;;;;;;10132107;28;20036;-65
2022/12/07 07:32:12;;;;;;;8.63;4.72;;;5.70;99.90;;;;;;10137908;28;20490;-68
2022/12/07 07:37:02;;;;;;;10.18;5.20;;;5.70;99.90;;;;;;10135682;28;20031;-68
2022/12/07 07:41:53;;;;;;;9.98;4.32;;;5.70;99.90;;;;;;10135506;28;20020;-81
2022/12/07 07:46:44;;;;;;;11.93;4.30;;;5.70;99.90;;;;;;10116182;28;20016;-72
2022/12/07 07:51:34;;;;;;;11.82;5.18;;;5.70;99.90;;;;;;10125051;28;20709;-72
2022/12/07 07:56:25;;;;;;;12.02;5.70;;;5.80;99.90;;;;;;10106317;28;20507;-76
2022/12/07 08:01:16;;;;;;;12.63;5.05;;;5.70;99.90;;;;;;10135859;28;20120;-70
2022/12/07 08:06:07;;;;;;;9.93;5.78;;;5.70;99.90;;;;;;10133372;28;20593;-70
2022/12/07 08:11:00;;;;;;;9.93;5.63;;;5.70;99.90;;;;;;10132682;28;20036;-71
2022/12/07 08:15:51;;;;;;;9.57;5.65;;;5.70;99.90;;;;;;10113836;28;20044;-75
2022/12/07 08:20:42;;;;;;;14.93;7.57;;;5.70;99.90;;;;;;10140994;28;20395;-67
2022/12/07 08:25:33;;;;;;;14.27;6.90;;;5.80;99.90;;;;;;10142349;28;20568;-63
2022/12/07 08:30:24;;;;;;;9.52;6.38;;;5.90;99.90;;;;;;10142384;28;20040;-68
2022/12/07 08:35:15;;;;;;;12.52;6.25;;;5.90;99.90;;;;;;10143178;28;20402;-69
2022/12/07 08:40:07;;;;;;;12.43;6.00;;;6.00;99.90;;;;;;10135014;28;20502;-70
2022/12/07 08:44:58;;;;;;;12.68;5.80;;;5.90;99.90;;;;;;10134832;28;20521;-74
2022/12/07 08:49:50;;;;;;;10.68;5.82;;;5.80;99.90;;;;;;10141397;28;20039;-58
2022/12/07 08:54:41;;;;;;;9.95;5.63;;;5.70;99.90;;;;;;10140938;28;20136;-69
2022/12/07 08:59:34;;;;;;;12.02;6.35;;;5.70;99.90;;;;;;10140987;28;20129;-69
2022/12/07 09:04:25;;;;;;;14.43;5.68;;;5.80;99.90;;;;;;10139107;28;20082;-67
2022/12/07 09:09:16;;;;;;;14.10;6.70;;;6.00;99.90;;;;;;10141631;28;20101;-63
2022/12/07 09:14:06;;;;;;;13.07;5.78;;;6.00;99.90;;;;;;10139034;28;20035;-62
2022/12/07 09:18:57;;;;;;;15.07;6.10;;;5.90;99.90;;;;;;10141441;28;20032;-70
2022/12/07 09:23:48;;;;;;;11.93;6.43;;;6.00;99.90;;;;;;10139744;28;20028;-70
2022/12/07 09:28:39;;;;;;;14.65;6.97;;;6.10;99.90;;;;;;10139929;28;20119;-70
2022/12/07 09:33:29;;;;;;;13.25;6.20;;;6.20;99.90;;;;;;10138799;28;20056;-68
2022/12/07 09:38:20;;;;;;;11.43;6.57;;;6.30;99.90;;;;;;10140066;28;20039;-66
2022/12/07 09:43:18;;;;;;;12.23;6.18;;;6.30;99.90;;;;;;10118961;28;20021;-69
2022/12/07 09:48:23;;;;;;;12.68;6.43;;;6.30;99.90;;;;;;10138575;28;20090;-72
2022/12/07 09:53:21;;;;;;;15.15;7.07;;;6.40;99.90;;;;;;10140923;28;20032;-66
2022/12/07 09:58:22;;;;;;;14.32;7.30;;;6.60;99.90;;;;;;10135572;28;20445;-71
2022/12/07 10:03:13;;;;;;;12.77;6.13;;;6.70;99.90;;;;;;10136934;28;20036;-76
2022/12/07 10:08:04;;;;;;;14.82;7.28;;;6.50;99.90;;;;;;10136318;28;20115;-69
2022/12/07 10:13:01;;;;;;;12.98;7.15;;;6.60;99.90;;;;;;10136392;28;20032;-66
2022/12/07 10:17:52;;;;;;;13.73;6.40;;;6.60;99.90;;;;;;10138676;28;20418;-66
2022/12/07 10:22:58;;;;;;;9.30;5.22;;;6.40;99.90;;;;;;10119788;28;20024;-67
2022/12/07 10:28:12;;;;;;;11.52;5.30;;;6.60;99.90;;;;;;10137482;28;20032;-67
2022/12/07 10:33:15;;;;;;;11.15;5.50;;;6.70;99.90;;;;;;10137494;28;20089;-72
2022/12/07 10:38:16;;;;;;;9.85;6.32;;;6.70;99.90;;;;;;10136557;28;20033;-71
2022/12/07 10:43:13;;;;;;;10.90;5.78;;;6.80;99.90;;;;;;10137877;28;20024;-72
2022/12/07 10:48:24;;;;;;;8.00;4.88;;;6.90;99.90;;;;;;10134733;28;20043;-70
2022/12/07 10:53:30;;;;;;;9.77;5.82;;;6.90;99.90;;;;;;10134971;28;20158;-69
2022/12/07 10:58:24;;;;;;;10.95;6.22;;;7.10;99.90;;;;;;10135849;28;20632;-72
2022/12/07 11:03:24;;;;;;;11.75;6.15;;;7.30;99.90;;;;;;10117856;28;20070;-69
2022/12/07 11:08:40;;;;;;;10.95;5.35;;;7.50;99.90;;;;;;10133909;28;20032;-68
2022/12/07 11:13:47;;;;;;;10.52;4.80;;;7.40;99.90;;;;;;10132140;28;20031;-72
2022/12/07 11:18:48;;;;;;;15.20;6.20;;;7.30;99.90;;;;;;10136020;28;20032;-65
2022/12/07 11:23:56;;;;;;;8.40;4.47;;;7.50;99.90;;;;;;10136736;28;20032;-72
2022/12/07 11:28:50;;;;;;;6.70;4.18;;;7.60;99.90;;;;;;10133925;28;20045;-69
2022/12/07 11:33:55;;;;;;;10.68;5.63;;;7.90;99.90;;;;;;10126603;28;20025;-72
2022/12/07 11:38:59;;;;;;;10.77;6.07;;;8.00;99.90;;;;;;10108984;28;20047;-71
2022/12/07 11:44:02;;;;;;;8.90;4.25;;;8.00;99.90;;;;;;10118585;28;20029;-71
2022/12/07 11:49:00;;;;;;;8.73;4.72;;;8.00;99.90;;;;;;10109254;28;20040;-70
2022/12/07 11:53:55;;;;;;;8.40;4.47;;;8.00;99.90;;;;;;10131920;28;20079;-71
2022/12/07 11:58:56;;;;;;;8.68;5.25;;;7.90;99.90;;;;;;10115466;28;20048;-71
2022/12/07 12:03:52;;;;;;;10.48;4.97;;;7.70;99.90;;;;;;10119176;28;20112;-72
2022/12/07 12:08:55;;;;;;;10.20;5.77;;;7.60;99.90;;;;;;10130878;28;20414;-71
2022/12/07 12:14:18;;;;;;;10.18;4.63;;;7.70;99.90;;;;;;10135189;28;20393;-71
2022/12/07 12:19:34;;;;;;;7.57;3.72;;;7.70;99.90;;;;;;10127925;28;20454;-71
2022/12/07 12:24:29;;;;;;;6.55;3.08;;;7.50;99.90;;;;;;10136440;28;20012;-72
2022/12/07 12:29:34;;;;;;;7.22;3.90;;;7.60;99.90;;;;;;10135858;28;20041;-73
2022/12/07 12:34:40;;;;;;;9.95;4.35;;;7.40;99.90;;;;;;10135351;28;20443;-71
2022/12/07 12:39:31;;;;;;;5.10;3.95;;;7.30;99.90;;;;;;10133155;28;20024;-72
2022/12/07 12:44:22;;;;;;;7.25;4.53;;;7.20;99.90;;;;;;10116680;28;20082;-72
2022/12/07 12:49:15;;;;;;;11.98;4.25;;;7.00;99.90;;;;;;10133553;28;20048;-72
2022/12/07 12:54:19;;;;;;;11.00;4.20;;;6.90;99.90;;;;;;10134530;28;20028;-71
2022/12/07 12:59:39;;;;;;;6.57;3.47;;;7.00;99.90;;;;;;10133690;28;20043;-71
2022/12/07 13:04:39;;;;;;;6.97;3.97;;;6.90;99.90;;;;;;10130349;28;20033;-67
2022/12/07 13:09:34;;;;;;;4.88;3.00;;;6.90;99.90;;;;;;10140298;28;20524;-63
2022/12/07 13:14:51;;;;;;;6.97;2.63;;;6.80;99.90;;;;;;10137026;28;20415;-62
2022/12/07 13:19:42;;;;;;;6.05;2.40;;;6.60;99.90;;;;;;10135452;28;20449;-71
2022/12/07 13:24:32;;;;;;;9.32;3.72;;;6.60;99.90;;;;;;10140950;28;20020;-67
2022/12/07 13:29:23;;;;;;;5.97;2.28;;;6.60;99.90;;;;;;10138254;28;20097;-70
2022/12/07 13:34:41;;;;;;;6.22;3.33;;;6.70;99.90;;;;;;10139990;28;20025;-72
2022/12/07 13:39:35;;;;;;;10.20;3.92;;;6.60;99.90;;;;;;10136056;28;20046;-68
2022/12/07 13:44:27;;;;;;;8.32;3.72;;;6.60;99.90;;;;;;10139313;28;20016;-66
2022/12/07 13:49:22;;;;;;;5.00;3.10;;;6.60;99.90;;;;;;10139324;28;20347;-66
2022/12/07 13:54:14;;;;;;;8.77;3.03;;;6.70;99.90;;;;;;10113403;28;20036;-64
2022/12/07 13:59:16;;;;;;;5.07;2.38;;;6.70;99.90;;;;;;10138229;28;20025;-66
2022/12/07 14:04:29;;;;;;;6.72;2.88;;;6.60;99.90;;;;;;10137068;28;20024;-66
2022/12/07 14:09:23;;;;;;;4.43;2.53;;;6.60;99.90;;;;;;10130764;28;20112;-66
2022/12/07 14:14:23;;;;;;;4.43;2.72;;;6.60;99.90;;;;;;10137297;28;20021;-68
2022/12/07 14:19:54;;;;;;;7.82;4.18;;;6.50;99.90;;;;;;10137774;28;20483;-63
2022/12/07 14:24:45;;;;;;;5.80;3.45;;;6.40;99.90;;;;;;10084804;28;20261;-70
2022/12/07 14:29:37;;;;;;;7.65;3.10;;;6.50;99.90;;;;;;10127067;28;20638;-72
2022/12/07 14:34:28;;;;;;;8.23;3.00;;;6.40;99.90;;;;;;10137269;28;20409;-70
2022/12/07 14:39:20;;;;;;;11.40;4.05;;;6.50;99.90;;;;;;10129536;28;20092;-69
2022/12/07 14:44:14;;;;;;;10.80;5.18;;;6.50;99.90;;;;;;10136443;28;20028;-67
2022/12/07 14:49:05;;;;;;;8.18;4.75;;;6.50;99.90;;;;;;10138080;28;20123;-66
2022/12/07 14:53:55;;;;;;;8.95;4.95;;;6.40;99.90;;;;;;10135904;28;20510;-68
2022/12/07 14:58:47;;;;;;;10.00;4.78;;;6.30;99.90;;;;;;10135742;28;20136;-67
2022/12/07 15:03:38;;;;;;;9.13;4.25;;;6.30;99.90;;;;;;10135638;28;20089;-70
2022/12/07 15:08:29;;;;;;;7.80;3.40;;;6.20;99.90;;;;;;10135869;28;20097;-64
2022/12/07 15:18:29;;;;;;;7.47;3.85;;;6.30;99.90;;;;;;10125183;28;20071;-67
2022/12/07 15:23:21;;;;;;;9.30;4.65;;;6.30;99.90;;;;;;10135280;28;20036;-70
2022/12/07 15:28:12;;;;;;;13.80;5.40;;;6.20;99.90;;;;;;10133377;28;20075;-72
2022/12/07 15:33:03;;;;;;;8.10;4.35;;;6.10;99.90;;;;;;10132714;28;20098;-69
2022/12/07 15:37:53;;;;;;;11.25;5.32;;;6.20;99.90;;;;;;10134015;28;20162;-70
2022/12/07 15:42:44;;;;;;;9.40;5.10;;;6.10;99.90;;;;;;10137633;28;20556;-73
2022/12/07 15:47:40;;;;;;;15.10;7.22;;;6.10;99.90;;;;;;10134779;28;20119;-68
2022/12/07 15:52:31;;;;;;;13.30;6.70;;;6.00;99.90;;;;;;10135160;28;20024;-69
2022/12/07 15:57:22;;;;;;;10.27;4.93;;;6.00;99.90;;;;;;10135718;28;20052;-71
2022/12/07 16:02:16;;;;;;;11.38;5.75;;;6.00;99.90;;;;;;10133987;28;20020;-72
2022/12/07 16:07:06;;;;;;;10.65;5.53;;;5.90;99.90;;;;;;10122312;28;20017;-71
2022/12/07 16:11:57;;;;;;;13.13;5.10;;;6.00;99.90;;;;;;10134326;28;20390;-61
2022/12/07 16:16:48;;;;;;;7.55;4.03;;;6.10;99.90;;;;;;10117710;28;20021;-74
2022/12/07 16:21:39;;;;;;;10.90;5.07;;;6.10;99.90;;;;;;10135448;28;20025;-76
2022/12/07 16:26:30;;;;;;;12.38;6.63;;;6.00;99.90;;;;;;10134317;28;20099;-68
2022/12/07 16:31:24;;;;;;;11.43;5.78;;;6.00;99.90;;;;;;10133315;28;20051;-69
2022/12/07 16:36:16;;;;;;;12.05;5.93;;;5.90;99.90;;;;;;10113058;28;20019;-68
2022/12/07 16:41:07;;;;;;;9.25;4.75;;;5.90;99.90;;;;;;10137590;28;20110;-69
2022/12/07 16:45:58;;;;;;;11.23;5.70;;;5.90;99.90;;;;;;10141452;28;20074;-73
2022/12/07 16:50:48;;;;;;;9.13;4.38;;;5.90;99.90;;;;;;10142480;28;20040;-75
2022/12/07 16:55:41;;;;;;;11.13;5.05;;;5.90;99.90;;;;;;10143747;28;20311;-73
2022/12/07 17:00:32;;;;;;;12.75;6.70;;;6.00;99.90;;;;;;10125108;28;20070;-73
2022/12/07 17:05:24;;;;;;;16.02;5.65;;;6.10;99.90;;;;;;10141800;28;20024;-73
2022/12/07 17:10:15;;;;;;;10.32;4.78;;;6.20;99.90;;;;;;10124073;28;20047;-70
2022/12/07 17:15:17;;;;;;;13.90;6.07;;;5.90;99.90;;;;;;10141058;28;20410;-74
2022/12/07 17:20:16;;;;;;;12.00;5.68;;;5.80;99.90;;;;;;10142680;28;20020;-73
2022/12/07 17:25:07;;;;;;;12.90;5.18;;;5.90;99.90;;;;;;10123811;28;20511;-71
2022/12/07 17:29:58;;;;;;;10.85;5.03;;;6.00;99.90;;;;;;10138170;28;20048;-69
2022/12/07 17:34:52;;;;;;;12.27;5.55;;;5.90;99.90;;;;;;10132782;28;20026;-74
2022/12/07 17:39:42;;;;;;;11.68;5.95;;;5.90;99.90;;;;;;10124848;28;20437;-65
2022/12/07 17:44:33;;;;;;;162.07;74.13;;;6.00;99.90;;;;;;10141103;28;20086;-65
2022/12/07 17:49:25;;;;;;;21.65;9.45;;;6.50;99.90;;;;;;10139450;28;20085;-62
2022/12/07 17:54:17;;;;;;;14.35;6.78;;;6.30;99.90;;;;;;10140299;28;20029;-60
2022/12/07 17:59:08;;;;;;;11.45;5.30;;;6.10;99.90;;;;;;10139793;28;20050;-62
2022/12/07 18:03:58;;;;;;;13.95;5.43;;;5.90;99.90;;;;;;10138302;28;20065;-67
2022/12/07 18:08:49;;;;;;;10.55;5.50;;;5.80;99.90;;;;;;10136451;28;20056;-63
2022/12/07 18:13:40;;;;;;;11.02;4.80;;;5.90;99.90;;;;;;10131080;28;20120;-59
2022/12/07 18:18:31;;;;;;;9.32;4.80;;;5.90;99.90;;;;;;10138967;28;20027;-64
2022/12/07 18:23:21;;;;;;;9.57;4.68;;;5.90;99.90;;;;;;10137121;28;20024;-66
2022/12/07 18:28:12;;;;;;;7.80;4.50;;;5.90;99.90;;;;;;10137218;28;20082;-62
2022/12/07 18:33:03;;;;;;;13.15;5.95;;;5.90;99.90;;;;;;10135899;28;20033;-65
2022/12/07 18:37:53;;;;;;;13.40;6.15;;;5.90;99.90;;;;;;10135150;28;20028;-66
2022/12/07 18:42:44;;;;;;;10.95;5.80;;;5.80;99.90;;;;;;10135615;28;20036;-63
2022/12/07 18:47:35;;;;;;;13.25;6.45;;;5.90;99.90;;;;;;10137373;28;20036;-64
2022/12/07 18:52:25;;;;;;;28.48;12.73;;;5.80;99.90;;;;;;10121313;28;20042;-68
2022/12/07 18:57:16;;;;;;;62.08;29.08;;;6.20;99.90;;;;;;10137460;28;20044;-61
2022/12/07 19:02:08;;;;;;;13.85;7.40;;;6.70;99.90;;;;;;10137362;28;20028;-57
2022/12/07 19:06:59;;;;;;;16.45;8.27;;;6.30;99.90;;;;;;10120191;28;20028;-66
2022/12/07 19:11:50;;;;;;;12.48;6.47;;;6.00;99.90;;;;;;10136530;28;20040;-70
2022/12/07 19:16:41;;;;;;;14.18;6.03;;;5.90;99.90;;;;;;10136697;28;20089;-62
2022/12/07 19:21:32;;;;;;;8.95;4.53;;;5.80;99.90;;;;;;10131704;28;20024;-60
2022/12/07 19:26:23;;;;;;;10.55;5.15;;;5.60;99.90;;;;;;10130016;28;20386;-60
2022/12/07 19:31:14;;;;;;;7.55;3.70;;;5.40;99.90;;;;;;10136704;28;20052;-71
2022/12/07 19:36:05;;;;;;;5.65;3.42;;;5.50;99.90;;;;;;10137705;28;20475;-63
2022/12/07 19:41:07;;;;;;;8.50;4.32;;;5.40;99.90;;;;;;10137436;28;20047;-60
2022/12/07 19:46:17;;;;;;;10.45;4.28;;;5.40;99.90;;;;;;10137244;28;20025;-56
2022/12/07 19:51:08;;;;;;;10.15;5.30;;;5.40;99.90;;;;;;10136032;28;20044;-71
2022/12/07 19:55:59;;;;;;;12.25;5.32;;;5.30;99.90;;;;;;10131034;28;20083;-59
2022/12/07 20:00:50;;;;;;;85.78;39.58;;;5.40;99.90;;;;;;10119937;28;20020;-55
2022/12/07 20:05:40;;;;;;;40.53;18.30;;;5.80;99.90;;;;;;10121975;28;20034;-52
2022/12/07 20:10:33;;;;;;;13.95;6.80;;;5.70;99.90;;;;;;10131512;28;20510;-59
2022/12/07 20:15:24;;;;;;;15.40;7.20;;;5.60;99.90;;;;;;10135330;28;20033;-62
2022/12/07 20:20:14;;;;;;;12.98;5.68;;;5.70;99.90;;;;;;10143049;28;20029;-63
2022/12/07 20:25:05;;;;;;;8.38;5.57;;;5.60;99.90;;;;;;10133871;28;20029;-59
2022/12/07 20:29:56;;;;;;;9.20;5.65;;;5.50;99.90;;;;;;10125219;28;20032;-58
2022/12/07 20:34:47;;;;;;;12.23;5.75;;;5.50;99.90;;;;;;10113631;28;20121;-63
2022/12/07 20:39:38;;;;;;;10.18;5.05;;;5.40;99.90;;;;;;10117351;28;20576;-55
2022/12/07 20:44:28;;;;;;;10.73;5.68;;;5.30;99.90;;;;;;10111834;28;20051;-59
2022/12/07 20:49:19;;;;;;;13.98;7.25;;;5.20;99.90;;;;;;10098402;28;20163;-59
2022/12/07 20:54:11;;;;;;;11.55;6.38;;;5.20;99.90;;;;;;10112318;28;20403;-60
2022/12/07 20:59:03;;;;;;;11.88;5.60;;;5.10;99.90;;;;;;10100878;28;20028;-60
2022/12/07 21:03:59;;;;;;;14.85;7.93;;;5.10;99.90;;;;;;10126014;28;20568;-59
2022/12/07 21:08:51;;;;;;;15.10;6.77;;;5.00;99.90;;;;;;10114577;28;20029;-62
2022/12/07 21:13:43;;;;;;;21.08;8.00;;;5.00;99.90;;;;;;10115532;28;20074;-61
2022/12/07 21:18:33;;;;;;;15.25;7.20;;;5.00;99.90;;;;;;10096457;28;20036;-57
2022/12/07 21:23:24;;;;;;;14.48;6.93;;;5.00;99.90;;;;;;10112057;28;20024;-68
2022/12/07 21:28:14;;;;;;;15.95;7.20;;;4.90;99.90;;;;;;10112301;28;20514;-63
2022/12/07 21:33:05;;;;;;;62.72;25.42;;;4.90;99.90;;;;;;10111140;28;20009;-54
2022/12/07 21:37:56;;;;;;;49.40;20.20;;;5.70;99.90;;;;;;10110727;28;20032;-54
2022/12/07 21:42:47;;;;;;;36.78;16.58;;;6.00;99.90;;;;;;10110702;28;20021;-60
2022/12/07 21:47:38;;;;;;;19.75;8.57;;;5.70;99.90;;;;;;10115932;28;20171;-60
2022/12/07 21:52:29;;;;;;;12.73;7.13;;;5.20;99.90;;;;;;10111438;28;20542;-57
2022/12/07 21:57:19;;;;;;;12.48;6.65;;;5.00;99.90;;;;;;10116610;28;20044;-67
2022/12/07 22:02:13;;;;;;;11.60;6.60;;;5.00;99.90;;;;;;10117663;28;20043;-62
2022/12/07 22:07:03;;;;;;;13.77;7.75;;;4.90;99.90;;;;;;10139622;28;20107;-67
2022/12/07 22:11:54;;;;;;;13.52;6.43;;;4.90;99.90;;;;;;10136253;28;20123;-59
2022/12/07 22:16:44;;;;;;;12.07;6.68;;;4.80;99.90;;;;;;10132994;28;20025;-56
2022/12/07 22:21:35;;;;;;;14.02;6.20;;;4.70;99.90;;;;;;10138471;28;20040;-61
2022/12/07 22:26:26;;;;;;;12.20;6.93;;;4.80;99.90;;;;;;10134424;28;20024;-64
2022/12/07 22:31:18;;;;;;;15.80;6.32;;;4.70;99.90;;;;;;10137218;28;20037;-67
2022/12/07 22:36:09;;;;;;;13.30;7.35;;;4.70;99.90;;;;;;10121801;28;20033;-62
2022/12/07 22:41:11;;;;;;;15.57;7.22;;;4.60;99.90;;;;;;10092363;28;20033;-56
2022/12/07 22:46:02;;;;;;;15.68;7.22;;;4.50;99.90;;;;;;10098059;28;20025;-67
2022/12/07 22:50:54;;;;;;;184.15;81.97;;;4.50;99.90;;;;;;10114857;28;20052;-56
2022/12/07 22:55:45;;;;;;;66.38;32.25;;;4.90;99.90;;;;;;10111044;28;20415;-55
2022/12/07 23:00:35;;;;;;;25.70;11.15;;;5.40;99.90;;;;;;10129394;28;20029;-61
2022/12/07 23:05:26;;;;;;;16.17;7.95;;;5.70;99.90;;;;;;10126882;28;20135;-66
2022/12/07 23:10:17;;;;;;;14.63;7.30;;;5.60;99.90;;;;;;10126269;28;20036;-55
2022/12/07 23:15:08;;;;;;;15.77;7.38;;;5.30;99.90;;;;;;10125195;28;20509;-62
2022/12/07 23:19:59;;;;;;;11.95;6.30;;;5.20;99.90;;;;;;10134887;28;20599;-63
2022/12/07 23:24:49;;;;;;;11.48;5.57;;;5.10;99.90;;;;;;10137296;28;20017;-62
2022/12/07 23:29:40;;;;;;;14.05;6.35;;;5.20;99.90;;;;;;10137541;28;20211;-63
2022/12/07 23:34:31;;;;;;;13.55;6.03;;;5.00;99.90;;;;;;10135717;28;20020;-62
2022/12/07 23:39:21;;;;;;;10.57;6.65;;;5.00;99.90;;;;;;10136096;28;20211;-61
2022/12/07 23:44:12;;;;;;;14.82;6.20;;;4.90;99.90;;;;;;10136772;28;20387;-60
2022/12/07 23:49:04;;;;;;;9.82;4.97;;;5.10;99.90;;;;;;10135621;28;20043;-62
2022/12/07 23:53:56;;;;;;;10.50;5.78;;;5.20;99.90;;;;;;10135941;28;20101;-61
2022/12/07 23:58:48;;;;;;;11.15;5.35;;;5.10;99.90;;;;;;10136007;28;20036;-63
